Time;durP1;ratioP1;P1;durP2;ratioP2;P2;SDS_P1;SDS_P2;PMS_P1;PMS_P2;Temp;Humidity;BMP_temperature;BMP_pressure;BME280_temperature;BME280_humidity;BME280_pressure;Samples;Min_cycle;Max_cycle;Signal;HPM_P1;HPM_P2
2022/10/20 00:01:37;;;;;;;13.20;7.37;;;6.60;99.90;;;;;;5052218;28;20252;-60
2022/10/20 00:04:04;;;;;;;16.60;8.20;;;6.60;99.90;;;;;;5052543;28;20259;-59
2022/10/20 00:06:33;;;;;;;14.83;7.80;;;6.60;99.90;;;;;;5051864;28;20205;-61
2022/10/20 00:09:01;;;;;;;12.17;7.40;;;6.60;99.90;;;;;;5051720;28;20634;-61
2022/10/20 00:11:29;;;;;;;14.67;7.07;;;6.60;99.90;;;;;;5051555;28;20202;-58
2022/10/20 00:13:58;;;;;;;13.67;7.50;;;6.50;99.90;;;;;;5051917;28;20240;-61
2022/10/20 00:16:27;;;;;;;12.73;7.93;;;6.50;99.90;;;;;;5051528;28;20275;-61
2022/10/20 00:18:55;;;;;;;12.27;7.20;;;6.40;99.90;;;;;;5051317;28;20209;-61
2022/10/20 00:21:24;;;;;;;10.47;7.40;;;6.40;99.90;;;;;;5051518;28;20590;-61
2022/10/20 00:23:51;;;;;;;11.27;7.67;;;6.40;99.90;;;;;;5051775;28;20260;-58
2022/10/20 00:26:20;;;;;;;13.27;8.37;;;6.30;99.90;;;;;;5051401;28;20210;-60
2022/10/20 00:28:46;;;;;;;13.10;7.90;;;6.30;99.90;;;;;;5054249;28;20213;-61
2022/10/20 00:31:15;;;;;;;12.13;8.63;;;6.30;99.90;;;;;;5055414;28;20233;-60
2022/10/20 00:33:42;;;;;;;17.43;8.83;;;6.30;99.90;;;;;;5055546;28;20595;-62
2022/10/20 00:36:12;;;;;;;18.47;8.27;;;6.30;99.90;;;;;;5055256;28;20213;-61
2022/10/20 00:38:39;;;;;;;15.23;9.27;;;6.30;99.90;;;;;;5055799;28;20255;-60
2022/10/20 00:41:06;;;;;;;17.07;8.47;;;6.30;99.90;;;;;;5055226;28;20226;-61
2022/10/20 00:43:48;;;;;;;15.13;8.97;;;6.30;99.90;;;;;;5055510;28;20232;-62
2022/10/20 00:46:19;;;;;;;20.23;9.10;;;6.30;99.90;;;;;;5055404;28;20259;-60
2022/10/20 00:48:48;;;;;;;13.30;9.23;;;6.20;99.90;;;;;;5055531;28;20201;-61
2022/10/20 00:51:17;;;;;;;13.70;8.80;;;6.30;99.90;;;;;;5055242;28;20230;-60
2022/10/20 00:53:45;;;;;;;17.73;8.80;;;6.40;99.90;;;;;;5055391;28;20209;-61
2022/10/20 00:56:12;;;;;;;15.57;8.80;;;6.40;99.90;;;;;;5055193;28;20259;-60
2022/10/20 00:58:39;;;;;;;19.37;8.27;;;6.40;99.90;;;;;;5055207;28;20206;-61
2022/10/20 01:01:06;;;;;;;13.60;8.50;;;6.50;99.90;;;;;;5055186;28;20319;-61
2022/10/20 01:03:44;;;;;;;16.63;9.13;;;6.40;99.90;;;;;;5055123;28;20225;-61
2022/10/20 01:06:11;;;;;;;14.50;8.83;;;6.40;99.90;;;;;;5055072;28;20284;-61
2022/10/20 01:08:38;;;;;;;17.00;9.27;;;6.40;99.90;;;;;;5055306;28;20210;-61
2022/10/20 01:11:15;;;;;;;16.73;8.77;;;6.30;99.90;;;;;;5054778;28;20280;-61
2022/10/20 01:13:55;;;;;;;20.30;9.57;;;6.30;99.90;;;;;;5054920;28;20205;-61
2022/10/20 01:16:26;;;;;;;13.67;8.90;;;6.30;99.90;;;;;;5054789;28;20210;-60
2022/10/20 01:19:02;;;;;;;14.77;9.17;;;6.30;99.90;;;;;;5054857;28;20283;-61
2022/10/20 01:21:55;;;;;;;20.67;8.80;;;6.30;99.90;;;;;;5054549;28;20209;-61
2022/10/20 01:24:48;;;;;;;14.07;9.37;;;6.40;99.90;;;;;;5055019;28;20264;-60
2022/10/20 01:27:32;;;;;;;15.10;9.60;;;6.40;99.90;;;;;;5054810;28;20638;-60
2022/10/20 01:30:07;;;;;;;22.47;9.60;;;6.40;99.90;;;;;;5054797;28;20284;-60
2022/10/20 01:32:52;;;;;;;20.17;9.43;;;6.40;99.90;;;;;;5054666;28;20255;-61
2022/10/20 01:35:25;;;;;;;18.43;9.73;;;6.40;99.90;;;;;;5054895;28;20213;-62
2022/10/20 01:37:54;;;;;;;17.87;9.77;;;6.30;99.90;;;;;;5054309;28;20584;-61
2022/10/20 01:40:26;;;;;;;18.33;10.60;;;6.30;99.90;;;;;;5054046;28;20229;-61
2022/10/20 01:42:58;;;;;;;23.80;11.00;;;6.30;99.90;;;;;;5054539;28;20214;-62
2022/10/20 01:45:27;;;;;;;18.20;10.13;;;6.40;99.90;;;;;;5054404;28;20721;-62
2022/10/20 01:47:54;;;;;;;15.50;9.03;;;6.40;99.90;;;;;;5053734;28;20676;-61
2022/10/20 01:50:22;;;;;;;16.70;9.43;;;6.40;99.90;;;;;;5054142;28;20225;-61
2022/10/20 01:52:49;;;;;;;15.57;9.00;;;6.40;99.90;;;;;;5054089;28;20251;-62
2022/10/20 01:55:17;;;;;;;19.40;9.27;;;6.30;99.90;;;;;;5053965;28;20218;-60
2022/10/20 01:58:01;;;;;;;15.10;9.67;;;6.30;99.90;;;;;;5054018;28;20263;-61
2022/10/20 02:00:28;;;;;;;17.63;9.93;;;6.30;99.90;;;;;;5054284;28;20295;-62
2022/10/20 02:03:10;;;;;;;19.27;9.63;;;6.30;99.90;;;;;;5053818;28;20647;-61
2022/10/20 02:05:52;;;;;;;15.23;9.37;;;6.30;99.90;;;;;;5053712;28;20259;-62
2022/10/20 02:08:28;;;;;;;18.23;9.53;;;6.20;99.90;;;;;;5053990;28;20231;-61
2022/10/20 02:10:58;;;;;;;15.53;10.10;;;6.30;99.90;;;;;;5053871;28;20359;-61
2022/10/20 02:13:28;;;;;;;18.30;10.20;;;6.30;99.90;;;;;;5053789;28;20198;-62
2022/10/20 02:15:59;;;;;;;18.33;9.90;;;6.30;99.90;;;;;;5053370;28;20209;-62
2022/10/20 02:18:30;;;;;;;26.57;11.30;;;6.30;99.90;;;;;;5053759;28;20210;-61
2022/10/20 02:20:59;;;;;;;18.77;10.93;;;6.30;99.90;;;;;;5053737;28;20313;-62
2022/10/20 02:23:28;;;;;;;22.27;11.17;;;6.30;99.90;;;;;;5053381;28;20230;-62
2022/10/20 02:25:56;;;;;;;16.53;10.73;;;6.30;99.90;;;;;;5053387;28;20202;-62
2022/10/20 02:28:24;;;;;;;20.83;10.63;;;6.30;99.90;;;;;;5053464;28;20676;-62
2022/10/20 02:30:52;;;;;;;17.13;10.10;;;6.40;99.90;;;;;;5053245;28;20279;-62
2022/10/20 02:33:19;;;;;;;20.07;10.33;;;6.30;99.90;;;;;;5053377;28;20206;-62
2022/10/20 02:35:54;;;;;;;20.90;10.27;;;6.30;99.90;;;;;;5053534;28;20209;-61
2022/10/20 02:38:21;;;;;;;16.77;10.23;;;6.40;99.90;;;;;;5053310;28;20232;-62
2022/10/20 02:40:48;;;;;;;19.43;10.80;;;6.40;99.90;;;;;;5053137;28;20271;-61
2022/10/20 02:43:15;;;;;;;19.33;10.73;;;6.40;99.90;;;;;;5053035;28;20718;-62
2022/10/20 02:45:41;;;;;;;19.77;10.97;;;6.30;99.90;;;;;;5053334;28;20205;-61
2022/10/20 02:48:09;;;;;;;23.70;10.73;;;6.40;99.90;;;;;;5052917;28;20214;-61
2022/10/20 02:50:37;;;;;;;18.57;11.10;;;6.40;99.90;;;;;;5052433;28;20244;-62
2022/10/20 02:53:04;;;;;;;19.47;11.60;;;6.40;99.90;;;;;;5053038;28;20261;-60
2022/10/20 02:55:31;;;;;;;22.57;11.97;;;6.40;99.90;;;;;;5052957;28;20232;-62
2022/10/20 02:57:58;;;;;;;27.30;11.30;;;6.50;99.90;;;;;;5052770;28;20210;-62
2022/10/20 03:00:28;;;;;;;21.23;11.43;;;6.60;99.90;;;;;;5052898;28;20232;-61
2022/10/20 03:02:54;;;;;;;19.83;11.27;;;6.60;99.90;;;;;;5052815;28;20228;-61
2022/10/20 03:05:23;;;;;;;21.63;12.13;;;6.70;99.90;;;;;;5052846;28;20214;-61
2022/10/20 03:07:49;;;;;;;22.33;11.33;;;6.70;99.90;;;;;;5052512;28;20256;-62
2022/10/20 03:10:16;;;;;;;22.43;12.83;;;6.70;99.90;;;;;;5052448;28;20226;-60
2022/10/20 03:12:43;;;;;;;25.10;13.10;;;6.60;99.90;;;;;;5052909;28;20210;-61
2022/10/20 03:15:10;;;;;;;22.13;12.23;;;6.60;99.90;;;;;;5052580;28;20259;-61
2022/10/20 03:17:37;;;;;;;20.60;12.17;;;6.70;99.90;;;;;;5052440;28;20206;-61
2022/10/20 03:20:04;;;;;;;22.10;12.70;;;6.70;99.90;;;;;;5052294;28;20229;-61
2022/10/20 03:22:32;;;;;;;21.23;12.80;;;6.60;99.90;;;;;;5052362;28;20630;-61
2022/10/20 03:24:59;;;;;;;22.00;13.37;;;6.60;99.90;;;;;;5052261;28;20730;-61
2022/10/20 03:27:25;;;;;;;20.70;11.80;;;6.70;99.90;;;;;;5052007;28;20212;-60
2022/10/20 03:29:52;;;;;;;19.17;12.23;;;6.70;99.90;;;;;;5052233;28;20275;-61
2022/10/20 03:32:19;;;;;;;18.83;11.33;;;6.60;99.90;;;;;;5052476;28;20205;-62
2022/10/20 03:34:46;;;;;;;23.20;11.67;;;6.60;99.90;;;;;;5052131;28;20209;-61
2022/10/20 03:37:12;;;;;;;19.93;11.90;;;6.60;99.90;;;;;;5052086;28;20214;-61
2022/10/20 03:39:41;;;;;;;24.43;12.17;;;6.60;99.90;;;;;;5052157;28;20228;-61
2022/10/20 03:42:07;;;;;;;22.90;12.43;;;6.60;99.90;;;;;;5052124;28;20668;-61
2022/10/20 03:44:34;;;;;;;20.63;12.73;;;6.70;99.90;;;;;;5052162;28;20206;-62
2022/10/20 03:47:00;;;;;;;19.67;12.30;;;6.70;99.90;;;;;;5051977;28;20263;-61
2022/10/20 03:49:27;;;;;;;20.97;13.00;;;6.70;99.90;;;;;;5052152;28;20259;-61
2022/10/20 03:51:54;;;;;;;22.70;11.83;;;6.70;99.90;;;;;;5051969;28;20259;-60
2022/10/20 03:54:20;;;;;;;17.47;11.30;;;6.70;99.90;;;;;;5052120;28;20198;-61
2022/10/20 03:56:48;;;;;;;20.40;11.70;;;6.70;99.90;;;;;;5051755;28;20702;-61
2022/10/20 03:59:15;;;;;;;24.77;11.83;;;6.70;99.90;;;;;;5051610;28;20786;-61
2022/10/20 04:01:45;;;;;;;18.73;11.17;;;6.70;99.90;;;;;;5051883;28;20205;-60
2022/10/20 04:04:12;;;;;;;19.63;12.43;;;6.70;99.90;;;;;;5051349;28;20225;-60
2022/10/20 04:06:38;;;;;;;21.77;10.90;;;6.80;99.90;;;;;;5051539;28;20209;-61
2022/10/20 04:09:05;;;;;;;22.33;12.57;;;6.80;99.90;;;;;;5051948;28;20209;-59
2022/10/20 04:11:32;;;;;;;23.77;10.67;;;6.70;99.90;;;;;;5052026;28;20669;-58
2022/10/20 04:14:00;;;;;;;23.07;11.77;;;6.60;99.90;;;;;;5051884;28;20206;-62
2022/10/20 04:16:27;;;;;;;23.63;12.30;;;6.60;99.90;;;;;;5051762;28;20255;-59
2022/10/20 04:18:54;;;;;;;23.07;11.93;;;6.60;99.90;;;;;;5051836;28;20205;-59
2022/10/20 04:21:21;;;;;;;19.23;11.17;;;6.50;99.90;;;;;;5052167;28;20267;-59
2022/10/20 04:23:47;;;;;;;19.77;11.63;;;6.50;99.90;;;;;;5051893;28;20275;-61
2022/10/20 04:26:15;;;;;;;22.47;12.33;;;6.50;99.90;;;;;;5051529;28;20612;-61
2022/10/20 04:28:42;;;;;;;22.00;12.27;;;6.40;99.90;;;;;;5051625;28;20216;-61
2022/10/20 04:31:10;;;;;;;19.97;11.97;;;6.50;99.90;;;;;;5051601;28;20221;-61
2022/10/20 04:33:37;;;;;;;23.87;12.10;;;6.50;99.90;;;;;;5052090;28;20209;-61
2022/10/20 04:36:06;;;;;;;18.03;11.30;;;6.50;99.90;;;;;;5051522;28;20259;-61
2022/10/20 04:38:34;;;;;;;29.07;12.20;;;6.60;99.90;;;;;;5043638;28;20205;-62
2022/10/20 04:41:03;;;;;;;30.63;16.73;;;6.90;99.90;;;;;;5050418;28;20232;-61
2022/10/20 04:43:29;;;;;;;31.40;15.30;;;7.40;99.90;;;;;;5051248;28;20232;-61
2022/10/20 04:46:00;;;;;;;29.90;15.37;;;7.70;99.90;;;;;;5050607;28;20288;-61
2022/10/20 04:48:28;;;;;;;30.63;14.87;;;7.80;99.90;;;;;;5051178;28;20218;-61
2022/10/20 04:51:02;;;;;;;28.20;14.47;;;8.20;99.90;;;;;;5050542;28;20286;-62
2022/10/20 04:53:29;;;;;;;30.00;14.10;;;8.60;99.90;;;;;;5051442;28;20265;-61
2022/10/20 04:55:56;;;;;;;31.40;15.43;;;8.80;99.90;;;;;;5051239;28;20283;-62
2022/10/20 04:58:23;;;;;;;35.93;15.33;;;9.20;99.90;;;;;;5050898;28;20214;-62
2022/10/20 05:00:50;;;;;;;35.30;20.23;;;9.60;99.90;;;;;;5050579;28;20721;-61
2022/10/20 05:03:18;;;;;;;28.23;14.13;;;9.70;99.90;;;;;;5050999;28;20283;-61
2022/10/20 05:05:46;;;;;;;27.13;14.33;;;9.90;99.90;;;;;;5051024;28;20233;-62
2022/10/20 05:08:12;;;;;;;29.97;14.97;;;10.00;99.90;;;;;;5050776;28;20205;-62
2022/10/20 05:10:39;;;;;;;27.57;14.50;;;10.10;99.90;;;;;;5050841;28;20701;-62
2022/10/20 05:13:06;;;;;;;28.87;13.97;;;10.40;99.90;;;;;;5050299;28;20198;-62
2022/10/20 05:15:32;;;;;;;28.50;13.87;;;10.50;99.90;;;;;;5054968;28;20209;-60
2022/10/20 05:17:59;;;;;;;25.90;12.77;;;10.60;99.90;;;;;;5054246;28;20633;-60
2022/10/20 05:20:25;;;;;;;19.20;11.33;;;10.70;99.90;;;;;;5054763;28;20230;-60
2022/10/20 05:22:53;;;;;;;19.43;10.87;;;10.70;99.90;;;;;;5054440;28;20212;-61
2022/10/20 05:25:20;;;;;;;17.87;10.30;;;10.80;99.90;;;;;;5054538;28;20209;-62
2022/10/20 05:27:47;;;;;;;14.80;9.00;;;10.80;99.90;;;;;;5053833;28;20213;-61
2022/10/20 05:30:13;;;;;;;11.40;7.70;;;11.00;99.90;;;;;;5054217;28;20237;-60
2022/10/20 05:32:40;;;;;;;10.20;7.40;;;11.00;99.90;;;;;;5054082;28;20205;-60
2022/10/20 05:35:07;;;;;;;9.80;6.67;;;11.00;99.90;;;;;;5054224;28;20208;-59
2022/10/20 05:37:34;;;;;;;11.83;6.73;;;11.00;99.90;;;;;;5053025;28;20591;-62
2022/10/20 05:40:05;;;;;;;10.27;5.83;;;11.10;99.90;;;;;;5053315;28;20733;-63
2022/10/20 05:42:32;;;;;;;10.10;6.43;;;11.20;99.90;;;;;;5053999;28;20247;-63
2022/10/20 05:44:58;;;;;;;9.20;5.73;;;11.20;99.90;;;;;;5053841;28;20254;-63
2022/10/20 05:47:25;;;;;;;10.37;6.33;;;11.30;99.90;;;;;;5053672;28;20209;-63
2022/10/20 05:49:51;;;;;;;12.30;6.37;;;11.30;99.90;;;;;;5053311;28;20647;-62
2022/10/20 05:52:18;;;;;;;10.80;6.07;;;11.30;99.90;;;;;;5053830;28;20202;-62
2022/10/20 05:54:45;;;;;;;9.33;5.97;;;11.30;99.90;;;;;;5053424;28;20334;-62
2022/10/20 05:57:13;;;;;;;11.87;6.13;;;11.40;99.90;;;;;;5054021;28;20266;-62
2022/10/20 05:59:39;;;;;;;7.87;6.07;;;11.30;99.90;;;;;;5053026;28;20440;-63
2022/10/20 06:02:06;;;;;;;9.60;6.43;;;11.30;99.90;;;;;;5053809;28;20269;-64
2022/10/20 06:04:33;;;;;;;9.23;6.47;;;11.30;99.90;;;;;;5052847;28;20653;-63
2022/10/20 06:07:00;;;;;;;10.23;6.27;;;11.30;99.90;;;;;;5052563;28;20212;-60
2022/10/20 06:09:26;;;;;;;10.73;6.83;;;11.40;99.90;;;;;;5053137;28;20236;-60
2022/10/20 06:11:53;;;;;;;12.93;6.13;;;11.30;99.90;;;;;;5053261;28;20210;-60
2022/10/20 06:14:22;;;;;;;13.37;6.67;;;11.30;99.90;;;;;;5053459;28;20213;-61
2022/10/20 06:16:50;;;;;;;11.70;6.60;;;11.30;99.90;;;;;;5052963;28;20292;-60
2022/10/20 06:19:17;;;;;;;9.93;6.57;;;11.30;99.90;;;;;;5053313;28;20727;-60
2022/10/20 06:21:43;;;;;;;11.97;6.57;;;11.30;99.90;;;;;;5052793;28;20251;-61
2022/10/20 06:24:11;;;;;;;10.10;6.67;;;11.30;99.90;;;;;;5053370;28;20233;-67
2022/10/20 06:26:38;;;;;;;8.23;6.00;;;11.30;99.90;;;;;;5051808;28;20308;-62
2022/10/20 06:29:07;;;;;;;11.67;6.37;;;11.40;99.90;;;;;;5053175;28;20251;-61
2022/10/20 06:31:37;;;;;;;8.63;6.43;;;11.40;99.90;;;;;;5052875;28;20881;-62
2022/10/20 06:34:05;;;;;;;10.23;6.80;;;11.40;99.90;;;;;;5053025;28;20204;-62
2022/10/20 06:36:34;;;;;;;9.63;6.57;;;11.40;99.90;;;;;;5052747;28;20210;-64
2022/10/20 06:39:03;;;;;;;14.13;7.00;;;11.40;99.90;;;;;;5052869;28;20255;-62
2022/10/20 06:41:30;;;;;;;12.43;6.67;;;11.50;99.90;;;;;;5052987;28;20205;-63
2022/10/20 06:43:58;;;;;;;10.53;6.90;;;11.50;99.90;;;;;;5050369;28;20286;-62
2022/10/20 06:46:26;;;;;;;8.70;6.37;;;11.60;99.90;;;;;;5046844;28;20236;-62
2022/10/20 06:48:54;;;;;;;10.90;6.93;;;11.60;99.90;;;;;;5051309;28;20264;-62
2022/10/20 06:51:21;;;;;;;11.50;6.30;;;11.70;99.90;;;;;;5052370;28;20209;-61
2022/10/20 06:53:49;;;;;;;8.50;6.47;;;11.80;99.90;;;;;;5052208;28;20217;-63
2022/10/20 06:56:18;;;;;;;10.40;7.33;;;11.80;99.90;;;;;;5051860;28;20209;-62
2022/10/20 06:58:46;;;;;;;9.73;6.57;;;11.90;99.90;;;;;;5052324;28;20658;-62
2022/10/20 07:01:14;;;;;;;10.87;7.30;;;11.90;99.90;;;;;;5051455;28;20804;-61
2022/10/20 07:03:41;;;;;;;10.00;6.70;;;11.90;99.90;;;;;;5051952;28;20230;-61
2022/10/20 07:06:12;;;;;;;10.33;6.63;;;12.00;99.90;;;;;;5051535;28;20214;-62
2022/10/20 07:08:39;;;;;;;11.07;6.53;;;12.10;99.90;;;;;;5052367;28;20213;-63
2022/10/20 07:11:08;;;;;;;9.53;6.30;;;12.10;99.90;;;;;;5051497;28;20274;-62
2022/10/20 07:13:36;;;;;;;9.60;6.33;;;12.20;99.90;;;;;;5051949;28;20212;-61
2022/10/20 07:16:04;;;;;;;12.30;6.97;;;12.20;99.90;;;;;;5051220;28;20263;-61
2022/10/20 07:18:31;;;;;;;10.83;7.03;;;12.30;99.90;;;;;;5051389;28;20678;-61
2022/10/20 07:20:59;;;;;;;13.43;6.03;;;12.30;99.90;;;;;;5051683;28;20230;-62
2022/10/20 07:23:29;;;;;;;10.50;6.63;;;12.40;99.90;;;;;;5050928;28;20672;-62
2022/10/20 07:26:01;;;;;;;14.13;6.60;;;12.50;99.90;;;;;;5051419;28;20758;-61
2022/10/20 07:28:27;;;;;;;12.03;6.30;;;12.50;99.90;;;;;;5050744;28;20213;-61
2022/10/20 07:30:54;;;;;;;12.60;6.80;;;12.60;99.90;;;;;;5051517;28;20263;-61
2022/10/20 07:33:21;;;;;;;9.17;6.17;;;12.60;99.90;;;;;;5051478;28;20279;-62
2022/10/20 07:35:48;;;;;;;8.47;6.47;;;12.70;99.90;;;;;;5051348;28;20209;-61
2022/10/20 07:38:14;;;;;;;9.30;6.17;;;12.80;99.90;;;;;;5050506;28;20209;-62
2022/10/20 07:40:42;;;;;;;10.23;6.90;;;12.80;99.90;;;;;;5051425;28;20232;-61
2022/10/20 07:43:09;;;;;;;14.37;6.93;;;12.80;99.90;;;;;;5051189;28;20205;-64
2022/10/20 07:45:36;;;;;;;9.57;6.53;;;12.90;99.90;;;;;;5051080;28;20226;-62
2022/10/20 07:48:03;;;;;;;9.03;6.67;;;12.90;99.90;;;;;;5051055;28;20205;-62
2022/10/20 07:50:30;;;;;;;7.47;6.23;;;13.00;99.90;;;;;;5050882;28;20917;-62
2022/10/20 07:52:56;;;;;;;7.27;5.47;;;13.10;99.90;;;;;;5051358;28;20201;-62
2022/10/20 07:55:23;;;;;;;10.00;6.20;;;13.10;99.90;;;;;;5050645;28;20661;-61
2022/10/20 07:57:51;;;;;;;10.60;6.30;;;13.20;99.90;;;;;;5050748;28;20217;-62
2022/10/20 08:00:18;;;;;;;9.57;5.63;;;13.30;99.90;;;;;;5050005;28;20287;-60
2022/10/20 08:02:45;;;;;;;11.50;5.33;;;13.30;99.90;;;;;;5041654;28;20205;-62
2022/10/20 08:05:12;;;;;;;7.80;5.10;;;13.50;99.90;;;;;;5051354;28;20229;-64
2022/10/20 08:07:39;;;;;;;11.30;5.97;;;13.50;99.90;;;;;;5050189;28;20205;-61
2022/10/20 08:10:07;;;;;;;8.63;5.73;;;13.70;99.90;;;;;;5050947;28;20275;-61
2022/10/20 08:12:34;;;;;;;9.40;5.83;;;13.80;99.90;;;;;;5050713;28;20232;-61
2022/10/20 08:15:02;;;;;;;8.80;6.33;;;13.90;99.90;;;;;;5051240;28;20216;-62
2022/10/20 08:17:28;;;;;;;9.20;6.20;;;14.00;99.90;;;;;;5050076;28;20216;-61
2022/10/20 08:19:55;;;;;;;8.57;5.33;;;14.10;99.90;;;;;;5050829;28;20719;-63
2022/10/20 08:22:22;;;;;;;10.53;5.87;;;14.10;99.90;;;;;;5050724;28;20206;-64
2022/10/20 08:24:48;;;;;;;9.30;5.83;;;14.20;99.90;;;;;;5050139;28;20219;-62
2022/10/20 08:27:15;;;;;;;10.70;6.37;;;14.20;99.90;;;;;;5051728;28;20205;-61
2022/10/20 08:29:42;;;;;;;8.07;5.30;;;14.20;99.90;;;;;;5051077;28;20299;-62
2022/10/20 08:32:11;;;;;;;9.20;5.50;;;14.30;99.90;;;;;;5052311;28;20208;-62
2022/10/20 08:34:38;;;;;;;9.33;5.50;;;14.30;99.90;;;;;;5049951;28;20284;-65
2022/10/20 08:37:05;;;;;;;8.10;5.50;;;14.40;99.90;;;;;;5049962;28;20757;-66
2022/10/20 08:39:31;;;;;;;11.30;5.60;;;14.40;99.90;;;;;;5048097;28;20575;-65
2022/10/20 08:41:59;;;;;;;13.40;5.77;;;14.40;99.90;;;;;;5051199;28;20620;-57
2022/10/20 08:44:28;;;;;;;14.80;5.90;;;14.50;99.90;;;;;;5050583;28;20692;-57
2022/10/20 08:46:56;;;;;;;7.30;5.30;;;14.60;99.90;;;;;;5050309;28;20210;-57
2022/10/20 08:49:27;;;;;;;8.20;5.43;;;14.60;99.90;;;;;;5052362;28;20259;-58
2022/10/20 08:51:54;;;;;;;12.33;5.57;;;14.60;99.90;;;;;;5053939;28;20230;-58
2022/10/20 08:54:20;;;;;;;10.97;5.27;;;14.60;99.90;;;;;;5054859;28;20213;-59
2022/10/20 08:56:47;;;;;;;6.33;4.63;;;14.60;99.90;;;;;;5054095;28;20206;-59
2022/10/20 08:59:25;;;;;;;10.63;5.63;;;14.70;99.90;;;;;;5054580;28;20225;-62
2022/10/20 09:01:52;;;;;;;8.43;5.43;;;14.60;99.90;;;;;;5054232;28;20205;-62
2022/10/20 09:04:20;;;;;;;7.10;5.50;;;14.60;99.90;;;;;;5051346;28;20229;-62
2022/10/20 09:06:53;;;;;;;8.30;5.90;;;14.70;99.90;;;;;;5054020;28;20255;-62
2022/10/20 09:09:25;;;;;;;9.53;5.80;;;14.70;99.90;;;;;;5053985;28;20237;-63
2022/10/20 09:11:52;;;;;;;8.53;5.10;;;14.80;99.90;;;;;;5054244;28;20251;-63
2022/10/20 09:14:19;;;;;;;11.13;5.23;;;14.80;99.90;;;;;;5053443;28;20263;-63
2022/10/20 09:16:47;;;;;;;11.23;6.00;;;14.90;99.90;;;;;;5053840;28;20205;-63
2022/10/20 09:19:17;;;;;;;7.80;5.23;;;14.90;99.90;;;;;;5053726;28;20637;-63
2022/10/20 09:21:45;;;;;;;9.57;4.80;;;14.90;99.90;;;;;;5054395;28;20209;-64
2022/10/20 09:24:13;;;;;;;9.97;5.03;;;14.90;99.90;;;;;;5053343;28;20256;-61
2022/10/20 09:26:44;;;;;;;10.87;4.70;;;14.80;99.90;;;;;;5053684;28;20206;-62
2022/10/20 09:29:13;;;;;;;8.53;5.60;;;14.70;99.90;;;;;;5053828;28;20221;-62
2022/10/20 09:31:42;;;;;;;10.60;5.20;;;14.70;99.90;;;;;;5054053;28;20215;-62
2022/10/20 09:34:23;;;;;;;9.57;5.30;;;14.70;99.90;;;;;;5054331;28;20626;-62
2022/10/20 09:36:53;;;;;;;12.27;5.17;;;14.80;99.90;;;;;;5038184;28;20217;-62
2022/10/20 09:39:24;;;;;;;9.10;4.57;;;14.80;99.90;;;;;;5052742;28;20233;-63
2022/10/20 09:42:01;;;;;;;9.17;5.27;;;14.90;99.90;;;;;;5053223;28;20214;-62
2022/10/20 09:44:31;;;;;;;7.07;4.73;;;15.00;99.90;;;;;;5053762;28;20225;-62
2022/10/20 09:46:59;;;;;;;9.50;5.00;;;15.00;99.90;;;;;;5052765;28;20206;-61
2022/10/20 09:49:30;;;;;;;9.17;4.90;;;15.10;99.90;;;;;;5053342;28;20225;-61
2022/10/20 09:51:57;;;;;;;11.13;5.03;;;15.00;99.90;;;;;;5053197;28;20894;-61
2022/10/20 09:54:26;;;;;;;5.87;4.53;;;15.10;99.90;;;;;;5053329;28;20205;-62
2022/10/20 09:56:54;;;;;;;6.17;4.43;;;15.10;99.90;;;;;;5053412;28;20672;-61
2022/10/20 09:59:24;;;;;;;8.77;5.03;;;15.00;99.90;;;;;;5053232;28;20746;-62
2022/10/20 10:01:57;;;;;;;10.87;5.33;;;15.10;99.90;;;;;;5053522;28;20209;-62
2022/10/20 10:04:33;;;;;;;7.50;5.50;;;15.10;99.90;;;;;;5053360;28;20259;-59
2022/10/20 10:06:59;;;;;;;8.27;5.37;;;15.00;99.90;;;;;;5053038;28;20201;-60
2022/10/20 10:09:38;;;;;;;9.93;5.83;;;15.00;99.90;;;;;;5052831;28;20371;-58
2022/10/20 10:12:14;;;;;;;9.47;4.83;;;14.90;99.90;;;;;;5053509;28;20217;-60
2022/10/20 10:14:51;;;;;;;11.33;6.33;;;14.90;99.90;;;;;;5052802;28;20202;-60
2022/10/20 10:17:29;;;;;;;11.23;5.83;;;14.80;99.90;;;;;;5052698;28;20205;-61
2022/10/20 10:19:55;;;;;;;11.40;5.87;;;14.80;99.90;;;;;;5052717;28;20275;-60
2022/10/20 10:22:22;;;;;;;11.83;5.93;;;14.90;99.90;;;;;;5053145;28;20244;-59
2022/10/20 10:24:51;;;;;;;9.40;5.30;;;14.70;99.90;;;;;;5050528;28;20229;-60
2022/10/20 10:27:24;;;;;;;11.27;5.70;;;14.70;99.90;;;;;;5032014;28;20222;-60
2022/10/20 10:29:51;;;;;;;10.17;5.83;;;14.50;99.90;;;;;;5032700;28;20241;-61
2022/10/20 10:32:24;;;;;;;11.50;5.70;;;14.40;99.90;;;;;;5032689;28;20217;-59
2022/10/20 10:35:07;;;;;;;10.67;6.40;;;14.30;99.90;;;;;;5032850;28;20202;-61
2022/10/20 10:37:36;;;;;;;11.57;6.27;;;14.30;99.90;;;;;;5031995;28;20268;-62
2022/10/20 10:40:14;;;;;;;8.73;5.97;;;14.30;99.90;;;;;;5032393;28;20241;-62
2022/10/20 10:42:59;;;;;;;8.93;5.83;;;14.40;99.90;;;;;;5032267;28;20302;-64
2022/10/20 10:45:44;;;;;;;8.77;5.63;;;14.50;99.90;;;;;;5032298;28;20229;-63
2022/10/20 10:48:27;;;;;;;12.03;5.60;;;14.60;99.90;;;;;;5031791;28;20313;-64
2022/10/20 10:50:58;;;;;;;11.03;5.70;;;14.70;99.90;;;;;;5032749;28;20226;-62
2022/10/20 10:53:39;;;;;;;11.07;5.93;;;14.90;99.90;;;;;;5047561;28;20210;-61
2022/10/20 10:56:15;;;;;;;9.63;5.67;;;15.00;99.90;;;;;;5051435;28;20197;-61
2022/10/20 10:58:46;;;;;;;8.57;5.07;;;15.00;99.90;;;;;;5051867;28;20205;-61
2022/10/20 11:01:42;;;;;;;9.27;6.00;;;15.10;99.90;;;;;;5051083;28;20237;-61
2022/10/20 11:04:29;;;;;;;8.93;5.70;;;15.00;99.90;;;;;;5051829;28;20213;-62
2022/10/20 11:07:02;;;;;;;9.10;6.27;;;15.10;99.90;;;;;;5051098;28;20205;-62
2022/10/20 11:09:36;;;;;;;12.27;6.50;;;15.20;99.90;;;;;;5051419;28;20225;-64
2022/10/20 11:12:22;;;;;;;11.10;5.70;;;15.10;99.90;;;;;;5050863;28;20236;-63
2022/10/20 11:15:01;;;;;;;8.30;5.53;;;15.00;99.90;;;;;;5051622;28;20849;-63
2022/10/20 11:17:43;;;;;;;7.43;5.60;;;15.10;99.90;;;;;;5051190;28;20617;-63
2022/10/20 11:20:24;;;;;;;9.23;6.53;;;14.90;99.90;;;;;;5051988;28;20225;-63
2022/10/20 11:23:08;;;;;;;9.80;5.77;;;14.90;99.90;;;;;;5051607;28;20212;-63
2022/10/20 11:25:40;;;;;;;11.27;6.10;;;14.90;99.90;;;;;;5051641;28;20264;-64
2022/10/20 11:28:25;;;;;;;11.57;5.90;;;14.90;99.90;;;;;;5049486;28;20201;-61
2022/10/20 11:30:52;;;;;;;9.83;6.30;;;14.90;99.90;;;;;;5045620;28;20233;-65
2022/10/20 11:33:23;;;;;;;10.23;6.10;;;15.00;99.90;;;;;;5051599;28;20264;-66
2022/10/20 11:35:56;;;;;;;13.07;6.47;;;15.00;99.90;;;;;;5051703;28;20279;-65
2022/10/20 11:38:31;;;;;;;13.13;6.50;;;14.90;99.90;;;;;;5051422;28;20217;-65
2022/10/20 11:41:01;;;;;;;12.93;6.87;;;14.90;99.90;;;;;;5051347;28;20315;-66
2022/10/20 11:43:36;;;;;;;11.73;7.13;;;14.80;99.90;;;;;;5051626;28;20214;-68
2022/10/20 11:46:07;;;;;;;8.97;5.97;;;14.80;99.90;;;;;;5050360;28;20858;-64
2022/10/20 11:48:40;;;;;;;10.83;6.57;;;14.80;99.90;;;;;;5051007;28;20282;-64
2022/10/20 11:51:43;;;;;;;10.90;6.73;;;14.80;99.90;;;;;;5050594;28;20226;-64
2022/10/20 11:54:30;;;;;;;14.20;6.53;;;14.80;99.90;;;;;;5051347;28;20213;-65
2022/10/20 11:57:06;;;;;;;10.23;6.50;;;14.80;99.90;;;;;;5050482;28;20255;-63
2022/10/20 11:59:54;;;;;;;9.17;6.53;;;14.80;99.90;;;;;;5050822;28;20229;-64
2022/10/20 12:03:09;;;;;;;14.23;7.10;;;14.70;99.90;;;;;;5050857;28;20205;-66
2022/10/20 12:06:07;;;;;;;9.63;6.07;;;14.70;99.90;;;;;;5050875;28;20272;-64
2022/10/20 12:09:03;;;;;;;10.23;6.77;;;14.60;99.90;;;;;;5050438;28;20206;-64
2022/10/20 12:11:37;;;;;;;13.63;7.97;;;14.60;99.90;;;;;;5051026;28;20202;-62
2022/10/20 12:14:14;;;;;;;13.70;7.17;;;14.40;99.90;;;;;;5051053;28;20194;-63
2022/10/20 12:17:17;;;;;;;10.70;7.13;;;14.50;99.90;;;;;;5051139;28;20623;-62
2022/10/20 12:19:44;;;;;;;11.17;7.33;;;14.40;99.90;;;;;;5050344;28;20707;-66
2022/10/20 12:22:40;;;;;;;13.07;7.80;;;14.40;99.90;;;;;;5050979;28;20251;-67
2022/10/20 12:25:32;;;;;;;10.57;8.00;;;14.20;99.90;;;;;;5053441;28;20672;-65
2022/10/20 12:28:33;;;;;;;8.73;6.87;;;14.20;99.90;;;;;;5055001;28;20210;-66
2022/10/20 12:31:00;;;;;;;13.27;8.03;;;14.20;99.90;;;;;;5041740;28;20229;-66
2022/10/20 12:33:58;;;;;;;13.53;9.10;;;14.20;99.90;;;;;;5055063;28;20210;-62
2022/10/20 12:36:36;;;;;;;13.67;8.13;;;14.10;99.90;;;;;;5054178;28;20205;-62
2022/10/20 12:39:17;;;;;;;11.93;8.37;;;14.20;99.90;;;;;;5054271;28;20623;-61
2022/10/20 12:41:56;;;;;;;13.40;9.30;;;14.10;99.90;;;;;;5054447;28;20212;-61
2022/10/20 12:44:23;;;;;;;11.77;8.47;;;14.00;99.90;;;;;;5055142;28;20209;-63
2022/10/20 12:46:55;;;;;;;13.13;8.53;;;14.00;99.90;;;;;;5053788;28;20628;-61
2022/10/20 12:49:29;;;;;;;15.13;9.17;;;14.00;99.90;;;;;;5053974;28;20283;-61
2022/10/20 12:51:58;;;;;;;12.87;8.87;;;14.00;99.90;;;;;;5054284;28;20205;-60
2022/10/20 12:54:29;;;;;;;12.50;8.90;;;14.00;99.90;;;;;;5055151;28;20300;-62
2022/10/20 12:57:00;;;;;;;15.13;9.00;;;14.00;99.90;;;;;;5054385;28;20217;-62
2022/10/20 12:59:45;;;;;;;15.80;9.20;;;14.00;99.90;;;;;;5055567;28;20232;-62